Warba, Kuwait

10:04 AM AST on September 02, 2014 (GMT +0300)
Abdally | Change Station
CLOSE
Current Station
Personal Weather Station
Location: Abdally, JAHRA
Elevation: 46 ft
Nearby Weather Stations

Elev 46 ft 30.03 °N, 47.75 °E | Updated 12 minutes ago

Clear
Clear
103.8 °F
Feels Like 100 °F
N
3.0
Wind Variable Wind from NNE
Gusts 8.0 mph

Today
High -- | Low -- °F
--% Chance of Precip.
Yesterday
High -- | Low -- °F
Precip. -- in
5:24 AM 6:09 PM
Waxing Crescent, 48% visible
Pressure 29.56 in
Visibility -9999.0 miles
Clouds
Heat Index 100 °F
Dew Point 48 °F
Humidity 15%
Rainfall 0.00 in
Snow Depth Not available.
UV Not available.
Pollen Not available.
Air Quality Not available.
Flu Activity Not available.
METAR OIAA 020700Z 01006KT CAVOK 42/10 Q1001

More Conditions Fewer Conditions

Pressure 29.56 in
Visibility -9999.0 miles
Clouds
Heat Index 100 °F
Dew Point 48 °F
Humidity 15%
Rainfall 0.00 in
Snow Depth Not available.
UV Not available.
Pollen Not available.
Air Quality Not available.
Flu Activity Not available.
METAR OIAA 020700Z 01006KT CAVOK 42/10 Q1001

More Conditions Fewer Conditions

10-Day Weather Forecast

Almanac

Astronomy

Sep. 02, 2014 Rise Set
Actual Time 5:24 AM AST 6:09 PM AST
Civil Twilight 5:00 AM AST 6:33 PM AST
Nautical Twilight 4:31 AM AST 7:02 PM AST
Astronomical Twilight 4:02 AM AST 7:31 PM AST
Moon 12:16 PM AST 11:12 PM AST
Length of Visible Light 13h 32m
Length of Day
12h 44m
Tomorrow will be 1m 45s shorter.
Waxing Crescent, 48% of the Moon is Illuminated
Today
Waxing Crescent
Sep 2
First Quarter
Sep 8
Full
Sep 15
Last Quarter
Sep 24
New

Yesterday's Extremes

Country Highs Country Lows

Community

WunderPhotos

Upload Photos

1,749,589 photos uploaded!

WunderBlogs® & News

Nearby

Snow Depth

Not available.

Earthquake Activity

City Distance Mag. Time & Date
No recent earthquake activity has been reported nearby.
Minimum magnitude displayed is 2.5.

Coastal Water Temperatures

Place Temperature
No Stations Reporting

Nearby Weather Stations